TOM888 ESNQ-ESSA
Flight info
| Callsign | TOM888 |
|---|---|
| Flight time | 1h 29m |
| Altitude | 28000 |
| Route | VAGAS DCT OSK DCT SIPRI T31 VACRA |
| Aircraft | B738/M-SDE2E3FGHIRWXY/LB1 |
Departure
| Time | 2026-05-05 09:45 |
|---|---|
| Airport | Kiruna Airport (ESNQ) |
Arrival
| Time | 2026-05-05 11:14 |
|---|---|
| Airport | Stockholm-Arlanda Airport (ESSA) |
| Time | Latitude | Longitude | Altitude | Speed | Heading |
|---|---|---|---|---|---|
| 2026-05-05 09:15 | 67.82502 | 20.33493 | 1466 ft | 0 kts | 26° |
| 2026-05-05 09:39 | 67.82503 | 20.33495 | 1439 ft | 0 kts | 36° |
| 2026-05-05 09:39 | 67.82503 | 20.33521 | 1466 ft | 3 kts | 94° |
| 2026-05-05 09:39 | 67.82472 | 20.33559 | 1462 ft | 9 kts | 177° |
| 2026-05-05 09:40 | 67.82393 | 20.33480 | 1466 ft | 15 kts | 213° |
| 2026-05-05 09:40 | 67.82297 | 20.33313 | 1462 ft | 18 kts | 213° |
| 2026-05-05 09:40 | 67.82194 | 20.33133 | 1467 ft | 17 kts | 213° |
| 2026-05-05 09:40 | 67.82111 | 20.33107 | 1469 ft | 8 kts | 136° |
| 2026-05-05 09:41 | 67.82095 | 20.33163 | 1478 ft | 1 kts | 123° |
| 2026-05-05 09:41 | 67.82085 | 20.33203 | 1475 ft | 6 kts | 123° |
| 2026-05-05 09:41 | 67.82032 | 20.33354 | 1475 ft | 15 kts | 167° |
| 2026-05-05 09:41 | 67.81917 | 20.33194 | 1479 ft | 23 kts | 213° |
| 2026-05-05 09:42 | 67.81763 | 20.32927 | 1493 ft | 30 kts | 213° |
| 2026-05-05 09:42 | 67.81573 | 20.32594 | 1500 ft | 35 kts | 213° |
| 2026-05-05 09:42 | 67.81380 | 20.32247 | 1509 ft | 30 kts | 221° |
| 2026-05-05 09:42 | 67.81303 | 20.32019 | 1512 ft | 5 kts | 195° |
| 2026-05-05 09:43 | 67.81284 | 20.32079 | 1513 ft | 5 kts | 71° |
| 2026-05-05 09:43 | 67.81307 | 20.32131 | 1512 ft | 0 kts | 33° |
| 2026-05-05 09:44 | 67.81526 | 20.32512 | 1503 ft | 79 kts | 33° |
| 2026-05-05 09:44 | 67.82188 | 20.33672 | 1472 ft | 150 kts | 32° |
| 2026-05-05 09:45 | 67.83116 | 20.35390 | 2061 ft | 161 kts | 32° |
| 2026-05-05 09:45 | 67.83989 | 20.37111 | 3280 ft | 153 kts | 37° |
| 2026-05-05 09:45 | 67.84618 | 20.39713 | 3761 ft | 190 kts | 70° |
| 2026-05-05 09:45 | 67.84669 | 20.43494 | 3995 ft | 226 kts | 98° |
| 2026-05-05 09:46 | 67.83879 | 20.47372 | 4276 ft | 259 kts | 132° |
| 2026-05-05 09:46 | 67.82207 | 20.49594 | 4708 ft | 284 kts | 171° |
| 2026-05-05 09:46 | 67.80279 | 20.48835 | 5709 ft | 282 kts | 207° |
| 2026-05-05 09:46 | 67.78772 | 20.45609 | 6712 ft | 280 kts | 226° |
| 2026-05-05 09:47 | 67.77336 | 20.42107 | 7458 ft | 289 kts | 223° |
| 2026-05-05 09:47 | 67.75793 | 20.38692 | 8402 ft | 292 kts | 214° |
| 2026-05-05 09:47 | 67.73881 | 20.36681 | 9126 ft | 301 kts | 191° |
| 2026-05-05 09:47 | 67.71829 | 20.35533 | 9985 ft | 305 kts | 191° |
| 2026-05-05 09:48 | 67.69677 | 20.34368 | 10291 ft | 329 kts | 191° |
| 2026-05-05 09:48 | 67.67345 | 20.33107 | 10458 ft | 354 kts | 191° |
| 2026-05-05 09:48 | 67.64872 | 20.31758 | 10826 ft | 371 kts | 191° |
| 2026-05-05 09:48 | 67.62312 | 20.30346 | 11540 ft | 376 kts | 191° |
| 2026-05-05 09:49 | 67.59768 | 20.28935 | 12268 ft | 381 kts | 191° |
| 2026-05-05 09:49 | 67.57170 | 20.27489 | 13104 ft | 384 kts | 190° |
| 2026-05-05 09:49 | 67.54535 | 20.26024 | 13689 ft | 391 kts | 190° |
| 2026-05-05 09:49 | 67.51894 | 20.24559 | 14623 ft | 386 kts | 190° |
| 2026-05-05 09:50 | 67.49256 | 20.23097 | 15340 ft | 389 kts | 191° |
| 2026-05-05 09:50 | 67.46602 | 20.21631 | 16131 ft | 390 kts | 191° |
| 2026-05-05 09:50 | 67.43944 | 20.20163 | 16847 ft | 392 kts | 190° |
| 2026-05-05 09:50 | 67.41261 | 20.18687 | 17534 ft | 395 kts | 190° |
| 2026-05-05 09:51 | 67.38567 | 20.17208 | 18187 ft | 397 kts | 190° |
| 2026-05-05 09:51 | 67.35903 | 20.15750 | 18847 ft | 397 kts | 191° |
| 2026-05-05 09:51 | 67.33183 | 20.14398 | 19483 ft | 397 kts | 187° |
| 2026-05-05 09:51 | 67.30446 | 20.13367 | 20097 ft | 399 kts | 186° |
| 2026-05-05 09:52 | 67.27677 | 20.12467 | 20565 ft | 404 kts | 185° |
| 2026-05-05 09:52 | 67.24904 | 20.11603 | 21365 ft | 400 kts | 185° |
| 2026-05-05 09:52 | 67.22129 | 20.10738 | 21843 ft | 404 kts | 185° |
| 2026-05-05 09:52 | 67.19341 | 20.09849 | 22520 ft | 403 kts | 185° |
| 2026-05-05 09:53 | 67.16544 | 20.08944 | 22980 ft | 408 kts | 185° |
| 2026-05-05 09:53 | 67.13706 | 20.08012 | 23326 ft | 413 kts | 185° |
| 2026-05-05 09:53 | 67.10878 | 20.07075 | 23685 ft | 418 kts | 186° |
| 2026-05-05 09:53 | 67.07983 | 20.06110 | 24085 ft | 421 kts | 186° |
| 2026-05-05 09:54 | 67.05076 | 20.05138 | 24550 ft | 422 kts | 186° |
| 2026-05-05 09:54 | 67.02152 | 20.04163 | 24905 ft | 425 kts | 186° |
| 2026-05-05 09:54 | 66.99210 | 20.03183 | 25319 ft | 428 kts | 186° |
| 2026-05-05 09:54 | 66.96232 | 20.02195 | 25526 ft | 435 kts | 186° |
| 2026-05-05 09:55 | 66.93219 | 20.01198 | 25901 ft | 438 kts | 186° |
| 2026-05-05 09:55 | 66.90175 | 20.00194 | 26142 ft | 444 kts | 186° |
| 2026-05-05 09:55 | 66.87164 | 19.99201 | 26852 ft | 439 kts | 187° |
| 2026-05-05 09:55 | 66.84133 | 19.98204 | 27381 ft | 440 kts | 187° |
| 2026-05-05 09:56 | 66.81085 | 19.97205 | 27509 ft | 446 kts | 187° |
| 2026-05-05 09:56 | 66.77998 | 19.96196 | 27519 ft | 448 kts | 187° |
| 2026-05-05 09:56 | 66.74919 | 19.95192 | 27514 ft | 445 kts | 187° |
| 2026-05-05 09:56 | 66.71854 | 19.94196 | 27497 ft | 443 kts | 187° |
| 2026-05-05 09:57 | 66.68803 | 19.93208 | 27511 ft | 441 kts | 187° |
| 2026-05-05 09:57 | 66.65769 | 19.92226 | 27519 ft | 439 kts | 187° |
| 2026-05-05 09:57 | 66.62743 | 19.91250 | 27525 ft | 438 kts | 187° |
| 2026-05-05 09:57 | 66.59764 | 19.90291 | 27520 ft | 438 kts | 187° |
| 2026-05-05 09:58 | 66.56744 | 19.89321 | 27525 ft | 438 kts | 187° |
| 2026-05-05 09:58 | 66.53720 | 19.88353 | 27535 ft | 438 kts | 187° |
| 2026-05-05 09:58 | 66.50691 | 19.87385 | 27539 ft | 439 kts | 187° |
| 2026-05-05 09:58 | 66.47659 | 19.86419 | 27537 ft | 440 kts | 187° |
| 2026-05-05 09:59 | 66.44617 | 19.85452 | 27541 ft | 441 kts | 187° |
| 2026-05-05 09:59 | 66.41572 | 19.84486 | 27527 ft | 442 kts | 187° |
| 2026-05-05 09:59 | 66.38521 | 19.83521 | 27535 ft | 442 kts | 187° |
| 2026-05-05 09:59 | 66.35510 | 19.82571 | 27534 ft | 443 kts | 187° |
| 2026-05-05 10:00 | 66.32450 | 19.81608 | 27546 ft | 443 kts | 187° |
| 2026-05-05 10:00 | 66.29396 | 19.80649 | 27542 ft | 443 kts | 187° |
| 2026-05-05 10:00 | 66.26335 | 19.79691 | 27536 ft | 443 kts | 188° |
| 2026-05-05 10:00 | 66.23277 | 19.78735 | 27537 ft | 443 kts | 188° |
| 2026-05-05 10:01 | 66.20219 | 19.77782 | 27544 ft | 443 kts | 188° |
| 2026-05-05 10:01 | 66.17162 | 19.76830 | 27525 ft | 443 kts | 188° |
| 2026-05-05 10:01 | 66.14103 | 19.75882 | 27538 ft | 443 kts | 188° |
| 2026-05-05 10:01 | 66.11050 | 19.74937 | 27531 ft | 443 kts | 188° |
| 2026-05-05 10:02 | 66.08037 | 19.74007 | 27537 ft | 442 kts | 188° |
| 2026-05-05 10:02 | 66.04985 | 19.73066 | 27523 ft | 442 kts | 188° |
| 2026-05-05 10:02 | 66.01934 | 19.72129 | 27531 ft | 442 kts | 188° |
| 2026-05-05 10:02 | 65.98884 | 19.71195 | 27526 ft | 442 kts | 188° |
| 2026-05-05 10:03 | 65.95837 | 19.70263 | 27530 ft | 441 kts | 188° |
| 2026-05-05 10:03 | 65.92790 | 19.69335 | 27524 ft | 441 kts | 189° |
| 2026-05-05 10:03 | 65.89743 | 19.68409 | 27533 ft | 441 kts | 189° |
| 2026-05-05 10:03 | 65.86697 | 19.67483 | 27524 ft | 441 kts | 188° |
| 2026-05-05 10:04 | 65.83694 | 19.66573 | 27529 ft | 441 kts | 188° |
| 2026-05-05 10:04 | 65.80647 | 19.65651 | 27526 ft | 441 kts | 188° |
| 2026-05-05 10:04 | 65.77602 | 19.64735 | 27536 ft | 441 kts | 189° |
| 2026-05-05 10:04 | 65.74552 | 19.63817 | 27534 ft | 442 kts | 189° |
| 2026-05-05 10:05 | 65.71499 | 19.62902 | 27531 ft | 442 kts | 189° |
| 2026-05-05 10:05 | 65.68446 | 19.61988 | 27524 ft | 442 kts | 188° |
| 2026-05-05 10:05 | 65.65392 | 19.61076 | 27527 ft | 442 kts | 188° |
| 2026-05-05 10:05 | 65.62340 | 19.60167 | 27511 ft | 442 kts | 188° |
| 2026-05-05 10:06 | 65.59326 | 19.59273 | 27526 ft | 442 kts | 189° |
| 2026-05-05 10:06 | 65.56271 | 19.58368 | 27527 ft | 442 kts | 190° |
| 2026-05-05 10:06 | 65.53216 | 19.57465 | 27534 ft | 442 kts | 189° |
| 2026-05-05 10:06 | 65.50162 | 19.56562 | 27526 ft | 442 kts | 189° |
| 2026-05-05 10:07 | 65.47109 | 19.55663 | 27527 ft | 442 kts | 189° |
| 2026-05-05 10:07 | 65.44055 | 19.54766 | 27532 ft | 442 kts | 189° |
| 2026-05-05 10:07 | 65.41002 | 19.53873 | 27534 ft | 442 kts | 189° |
| 2026-05-05 10:07 | 65.37949 | 19.52980 | 27544 ft | 442 kts | 189° |
| 2026-05-05 10:08 | 65.34941 | 19.52104 | 27545 ft | 441 kts | 190° |
| 2026-05-05 10:08 | 65.31893 | 19.51217 | 27542 ft | 441 kts | 189° |
| 2026-05-05 10:08 | 65.28847 | 19.50334 | 27535 ft | 441 kts | 189° |
| 2026-05-05 10:08 | 65.25804 | 19.49452 | 27541 ft | 441 kts | 189° |
| 2026-05-05 10:09 | 65.22760 | 19.48574 | 27566 ft | 440 kts | 190° |
| 2026-05-05 10:09 | 65.19720 | 19.47698 | 27560 ft | 441 kts | 190° |
| 2026-05-05 10:09 | 65.16677 | 19.46823 | 27572 ft | 440 kts | 190° |
| 2026-05-05 10:09 | 65.13633 | 19.45948 | 27568 ft | 441 kts | 189° |
| 2026-05-05 10:10 | 65.10628 | 19.45088 | 27575 ft | 441 kts | 189° |
| 2026-05-05 10:10 | 65.07582 | 19.44218 | 27549 ft | 441 kts | 189° |
| 2026-05-05 10:10 | 65.04535 | 19.43350 | 27566 ft | 441 kts | 190° |
| 2026-05-05 10:10 | 65.01486 | 19.42483 | 27566 ft | 441 kts | 190° |
| 2026-05-05 10:11 | 64.98437 | 19.41619 | 27541 ft | 441 kts | 190° |
| 2026-05-05 10:11 | 64.95387 | 19.40756 | 27569 ft | 441 kts | 189° |
| 2026-05-05 10:11 | 64.92343 | 19.39897 | 27573 ft | 441 kts | 190° |
| 2026-05-05 10:11 | 64.89295 | 19.39038 | 27567 ft | 441 kts | 189° |
| 2026-05-05 10:12 | 64.86287 | 19.38192 | 27573 ft | 441 kts | 190° |
| 2026-05-05 10:12 | 64.83237 | 19.37337 | 27584 ft | 441 kts | 190° |
| 2026-05-05 10:12 | 64.80186 | 19.36483 | 27582 ft | 442 kts | 190° |
| 2026-05-05 10:12 | 64.77134 | 19.35631 | 27574 ft | 442 kts | 189° |
| 2026-05-05 10:13 | 64.74082 | 19.34781 | 27584 ft | 442 kts | 189° |
| 2026-05-05 10:13 | 64.71029 | 19.33933 | 27587 ft | 442 kts | 190° |
| 2026-05-05 10:13 | 64.67978 | 19.33087 | 27586 ft | 442 kts | 190° |
| 2026-05-05 10:13 | 64.64923 | 19.32242 | 27577 ft | 442 kts | 190° |
| 2026-05-05 10:14 | 64.61871 | 19.31401 | 27580 ft | 441 kts | 190° |
| 2026-05-05 10:14 | 64.58861 | 19.30572 | 27597 ft | 441 kts | 190° |
| 2026-05-05 10:14 | 64.55810 | 19.29734 | 27597 ft | 441 kts | 190° |
| 2026-05-05 10:14 | 64.52759 | 19.28897 | 27583 ft | 441 kts | 190° |
| 2026-05-05 10:15 | 64.49712 | 19.28064 | 27591 ft | 441 kts | 190° |
| 2026-05-05 10:15 | 64.46663 | 19.27232 | 27595 ft | 441 kts | 190° |
| 2026-05-05 10:15 | 64.43613 | 19.26402 | 27595 ft | 441 kts | 190° |
| 2026-05-05 10:15 | 64.40563 | 19.25573 | 27590 ft | 441 kts | 190° |
| 2026-05-05 10:16 | 64.37513 | 19.24746 | 27593 ft | 441 kts | 190° |
| 2026-05-05 10:16 | 64.34465 | 19.23921 | 27581 ft | 441 kts | 190° |
| 2026-05-05 10:16 | 64.31461 | 19.23111 | 27598 ft | 441 kts | 190° |
| 2026-05-05 10:16 | 64.28414 | 19.22291 | 27602 ft | 441 kts | 190° |
| 2026-05-05 10:17 | 64.25367 | 19.21472 | 27604 ft | 441 kts | 190° |
| 2026-05-05 10:17 | 64.22319 | 19.20655 | 27611 ft | 441 kts | 190° |
| 2026-05-05 10:17 | 64.19269 | 19.19839 | 27611 ft | 441 kts | 190° |
| 2026-05-05 10:17 | 64.16219 | 19.19024 | 27605 ft | 441 kts | 190° |
| 2026-05-05 10:18 | 64.13172 | 19.18213 | 27608 ft | 441 kts | 190° |
| 2026-05-05 10:18 | 64.10123 | 19.17403 | 27610 ft | 441 kts | 190° |
| 2026-05-05 10:18 | 64.07114 | 19.16606 | 27620 ft | 441 kts | 190° |
| 2026-05-05 10:18 | 64.04065 | 19.15799 | 27617 ft | 441 kts | 190° |
| 2026-05-05 10:19 | 64.01017 | 19.14995 | 27612 ft | 440 kts | 191° |
| 2026-05-05 10:19 | 63.97976 | 19.14195 | 27593 ft | 440 kts | 191° |
| 2026-05-05 10:19 | 63.94940 | 19.13398 | 27615 ft | 439 kts | 191° |
| 2026-05-05 10:19 | 63.91915 | 19.12604 | 27611 ft | 438 kts | 191° |
| 2026-05-05 10:20 | 63.88894 | 19.11814 | 27615 ft | 436 kts | 191° |
| 2026-05-05 10:20 | 63.85880 | 19.11027 | 27619 ft | 435 kts | 191° |
| 2026-05-05 10:20 | 63.82871 | 19.10243 | 27635 ft | 435 kts | 191° |
| 2026-05-05 10:20 | 63.79905 | 19.09471 | 27637 ft | 435 kts | 191° |
| 2026-05-05 10:21 | 63.76901 | 19.08691 | 27636 ft | 435 kts | 191° |
| 2026-05-05 10:21 | 63.73892 | 19.07911 | 27636 ft | 435 kts | 191° |
| 2026-05-05 10:21 | 63.70880 | 19.07132 | 27608 ft | 436 kts | 192° |
| 2026-05-05 10:21 | 63.67873 | 19.06358 | 27628 ft | 435 kts | 192° |
| 2026-05-05 10:22 | 63.64868 | 19.05586 | 27627 ft | 434 kts | 192° |
| 2026-05-05 10:22 | 63.61867 | 19.04815 | 27636 ft | 434 kts | 192° |
| 2026-05-05 10:22 | 63.58872 | 19.04048 | 27636 ft | 433 kts | 192° |
| 2026-05-05 10:22 | 63.55876 | 19.03282 | 27641 ft | 433 kts | 192° |
| 2026-05-05 10:23 | 63.52923 | 19.02528 | 27632 ft | 433 kts | 192° |
| 2026-05-05 10:23 | 63.49929 | 19.01766 | 27642 ft | 433 kts | 192° |
| 2026-05-05 10:23 | 63.46937 | 19.01005 | 27638 ft | 433 kts | 192° |
| 2026-05-05 10:23 | 63.43947 | 19.00247 | 27641 ft | 432 kts | 192° |
| 2026-05-05 10:24 | 63.40958 | 18.99495 | 27633 ft | 433 kts | 191° |
| 2026-05-05 10:24 | 63.37948 | 18.98967 | 27639 ft | 435 kts | 189° |
| 2026-05-05 10:24 | 63.34925 | 18.98624 | 27633 ft | 435 kts | 188° |
| 2026-05-05 10:24 | 63.31896 | 18.98349 | 27637 ft | 436 kts | 188° |
| 2026-05-05 10:25 | 63.28936 | 18.98098 | 27633 ft | 436 kts | 188° |
| 2026-05-05 10:25 | 63.25904 | 18.97835 | 27655 ft | 436 kts | 188° |
| 2026-05-05 10:25 | 63.22872 | 18.97559 | 27649 ft | 436 kts | 188° |
| 2026-05-05 10:25 | 63.19843 | 18.97270 | 27666 ft | 436 kts | 188° |
| 2026-05-05 10:26 | 63.17275 | 18.97019 | 27672 ft | 436 kts | 188° |
| 2026-05-05 10:26 | 63.14723 | 18.96765 | 27674 ft | 436 kts | 188° |
| 2026-05-05 10:26 | 63.11900 | 18.96481 | 27670 ft | 436 kts | 188° |
| 2026-05-05 10:26 | 63.09400 | 18.96229 | 27658 ft | 436 kts | 188° |
| 2026-05-05 10:27 | 63.07570 | 18.96044 | 27642 ft | 436 kts | 188° |
| 2026-05-05 10:27 | 63.05857 | 18.95872 | 27676 ft | 435 kts | 188° |
| 2026-05-05 10:27 | 63.04603 | 18.95748 | 27686 ft | 434 kts | 188° |
| 2026-05-05 10:27 | 63.03452 | 18.95636 | 27689 ft | 435 kts | 188° |
| 2026-05-05 10:28 | 63.02324 | 18.95545 | 27680 ft | 435 kts | 188° |
| 2026-05-05 10:28 | 63.01255 | 18.95433 | 27673 ft | 434 kts | 188° |
| 2026-05-05 10:28 | 63.00205 | 18.95337 | 27679 ft | 434 kts | 188° |
| 2026-05-05 10:28 | 62.99160 | 18.95233 | 27673 ft | 434 kts | 189° |
| 2026-05-05 10:29 | 62.98135 | 18.95070 | 27647 ft | 432 kts | 192° |
| 2026-05-05 10:29 | 62.97110 | 18.94799 | 27584 ft | 431 kts | 195° |
| 2026-05-05 10:29 | 62.96087 | 18.94362 | 27468 ft | 429 kts | 200° |
| 2026-05-05 10:29 | 62.95068 | 18.93744 | 27496 ft | 426 kts | 201° |
| 2026-05-05 10:30 | 62.94074 | 18.93222 | 27771 ft | 422 kts | 195° |
| 2026-05-05 10:30 | 62.93084 | 18.92951 | 28041 ft | 422 kts | 188° |
| 2026-05-05 10:30 | 62.92079 | 18.92990 | 28189 ft | 427 kts | 180° |
| 2026-05-05 10:30 | 62.91071 | 18.93396 | 28033 ft | 438 kts | 170° |
| 2026-05-05 10:31 | 62.90068 | 18.94232 | 27517 ft | 456 kts | 155° |
| 2026-05-05 10:31 | 62.89059 | 18.95563 | 27043 ft | 473 kts | 155° |
| 2026-05-05 10:31 | 62.88080 | 18.96783 | 27013 ft | 467 kts | 160° |
| 2026-05-05 10:31 | 62.87014 | 18.97809 | 26968 ft | 459 kts | 166° |
| 2026-05-05 10:32 | 62.85834 | 18.98625 | 26867 ft | 452 kts | 172° |
| 2026-05-05 10:32 | 62.84717 | 18.99187 | 26850 ft | 445 kts | 178° |
| 2026-05-05 10:32 | 62.83638 | 18.99477 | 26853 ft | 436 kts | 185° |
| 2026-05-05 10:32 | 62.82597 | 18.99480 | 26751 ft | 430 kts | 191° |
| 2026-05-05 10:33 | 62.81568 | 18.99193 | 26499 ft | 426 kts | 199° |
| 2026-05-05 10:33 | 62.80547 | 18.98593 | 26203 ft | 425 kts | 203° |
| 2026-05-05 10:33 | 62.79528 | 18.97875 | 26202 ft | 422 kts | 204° |
| 2026-05-05 10:33 | 62.78051 | 18.96854 | 26498 ft | 413 kts | 203° |
| 2026-05-05 10:34 | 62.77026 | 18.96171 | 26862 ft | 405 kts | 202° |
| 2026-05-05 10:34 | 62.76033 | 18.95536 | 27273 ft | 398 kts | 203° |
| 2026-05-05 10:34 | 62.75055 | 18.94980 | 27749 ft | 393 kts | 199° |
| 2026-05-05 10:34 | 62.74069 | 18.94635 | 28135 ft | 396 kts | 193° |
| 2026-05-05 10:35 | 62.73070 | 18.94595 | 28313 ft | 405 kts | 184° |
| 2026-05-05 10:35 | 62.72017 | 18.94940 | 28142 ft | 424 kts | 174° |
| 2026-05-05 10:35 | 62.70914 | 18.95795 | 27424 ft | 449 kts | 160° |
| 2026-05-05 10:35 | 62.69890 | 18.97379 | 26555 ft | 486 kts | 149° |
| 2026-05-05 10:36 | 62.68868 | 18.99023 | 26130 ft | 483 kts | 155° |
| 2026-05-05 10:36 | 62.67795 | 19.00399 | 25842 ft | 475 kts | 160° |
| 2026-05-05 10:36 | 62.66679 | 19.01568 | 25504 ft | 467 kts | 167° |
| 2026-05-05 10:36 | 62.65537 | 19.02379 | 25514 ft | 448 kts | 174° |
| 2026-05-05 10:37 | 62.64417 | 19.02854 | 25680 ft | 428 kts | 181° |
| 2026-05-05 10:37 | 62.63255 | 19.03050 | 25861 ft | 409 kts | 187° |
| 2026-05-05 10:37 | 62.62238 | 19.03091 | 26035 ft | 398 kts | 186° |
| 2026-05-05 10:37 | 62.61255 | 19.03182 | 26162 ft | 391 kts | 186° |
| 2026-05-05 10:38 | 62.60226 | 19.03290 | 26253 ft | 382 kts | 186° |
| 2026-05-05 10:38 | 62.58992 | 19.03423 | 26349 ft | 376 kts | 186° |
| 2026-05-05 10:38 | 62.57937 | 19.03531 | 26304 ft | 376 kts | 187° |
| 2026-05-05 10:38 | 62.56895 | 19.03624 | 26184 ft | 377 kts | 187° |
| 2026-05-05 10:39 | 62.55847 | 19.03698 | 26266 ft | 379 kts | 187° |
| 2026-05-05 10:39 | 62.54673 | 19.03771 | 26487 ft | 378 kts | 187° |
| 2026-05-05 10:39 | 62.53328 | 19.03807 | 26639 ft | 379 kts | 189° |
| 2026-05-05 10:39 | 62.50856 | 19.03574 | 26857 ft | 381 kts | 192° |
| 2026-05-05 10:40 | 62.49476 | 19.03343 | 27020 ft | 382 kts | 193° |
| 2026-05-05 10:40 | 62.47047 | 19.02861 | 27159 ft | 390 kts | 194° |
| 2026-05-05 10:40 | 62.44301 | 19.02276 | 27231 ft | 401 kts | 194° |
| 2026-05-05 10:40 | 62.41500 | 19.01695 | 27530 ft | 406 kts | 195° |
| 2026-05-05 10:41 | 62.38685 | 19.01141 | 27721 ft | 411 kts | 194° |
| 2026-05-05 10:41 | 62.35807 | 19.00594 | 27730 ft | 418 kts | 194° |
| 2026-05-05 10:41 | 62.32900 | 19.00065 | 27736 ft | 420 kts | 194° |
| 2026-05-05 10:41 | 62.29990 | 18.99553 | 27735 ft | 418 kts | 194° |
| 2026-05-05 10:42 | 62.24268 | 18.98569 | 27731 ft | 415 kts | 194° |
| 2026-05-05 10:42 | 62.21386 | 18.98068 | 27736 ft | 416 kts | 194° |
| 2026-05-05 10:42 | 62.18501 | 18.97565 | 27736 ft | 416 kts | 194° |
| 2026-05-05 10:43 | 62.15612 | 18.97061 | 27738 ft | 417 kts | 194° |
| 2026-05-05 10:43 | 62.12719 | 18.96557 | 27675 ft | 417 kts | 194° |
| 2026-05-05 10:43 | 62.09848 | 18.96066 | 27725 ft | 411 kts | 195° |
| 2026-05-05 10:43 | 62.07016 | 18.95586 | 27732 ft | 407 kts | 195° |
| 2026-05-05 10:44 | 62.04193 | 18.95098 | 27745 ft | 408 kts | 195° |
| 2026-05-05 10:44 | 62.01361 | 18.94604 | 27747 ft | 409 kts | 195° |
| 2026-05-05 10:44 | 61.98563 | 18.94115 | 27744 ft | 410 kts | 195° |
| 2026-05-05 10:44 | 61.95717 | 18.93621 | 27742 ft | 411 kts | 195° |
| 2026-05-05 10:45 | 61.92869 | 18.93130 | 27750 ft | 411 kts | 195° |
| 2026-05-05 10:45 | 61.90016 | 18.92641 | 27750 ft | 411 kts | 195° |
| 2026-05-05 10:45 | 61.87161 | 18.92153 | 27691 ft | 412 kts | 195° |
| 2026-05-05 10:45 | 61.84333 | 18.91680 | 27733 ft | 403 kts | 196° |
| 2026-05-05 10:46 | 61.81559 | 18.91223 | 27684 ft | 397 kts | 197° |
| 2026-05-05 10:46 | 61.78819 | 18.90763 | 27734 ft | 395 kts | 197° |
| 2026-05-05 10:46 | 61.76115 | 18.90299 | 27745 ft | 395 kts | 197° |
| 2026-05-05 10:46 | 61.73372 | 18.89826 | 27754 ft | 396 kts | 197° |
| 2026-05-05 10:47 | 61.70627 | 18.89355 | 27756 ft | 396 kts | 197° |
| 2026-05-05 10:47 | 61.67877 | 18.88885 | 27767 ft | 397 kts | 197° |
| 2026-05-05 10:47 | 61.65125 | 18.88418 | 27765 ft | 397 kts | 197° |
| 2026-05-05 10:47 | 61.62369 | 18.87953 | 27766 ft | 397 kts | 197° |
| 2026-05-05 10:48 | 61.59613 | 18.87490 | 27773 ft | 398 kts | 197° |
| 2026-05-05 10:48 | 61.56853 | 18.87027 | 27769 ft | 398 kts | 197° |
| 2026-05-05 10:48 | 61.54094 | 18.86566 | 27771 ft | 398 kts | 197° |
| 2026-05-05 10:48 | 61.51331 | 18.86105 | 27696 ft | 398 kts | 197° |
| 2026-05-05 10:49 | 61.48611 | 18.85653 | 27745 ft | 397 kts | 197° |
| 2026-05-05 10:49 | 61.45862 | 18.85197 | 27770 ft | 397 kts | 197° |
| 2026-05-05 10:49 | 61.43107 | 18.84739 | 27772 ft | 397 kts | 197° |
| 2026-05-05 10:49 | 61.40352 | 18.84281 | 27781 ft | 397 kts | 197° |
| 2026-05-05 10:50 | 61.37593 | 18.83823 | 27786 ft | 397 kts | 197° |
| 2026-05-05 10:50 | 61.34837 | 18.83367 | 27783 ft | 398 kts | 197° |
| 2026-05-05 10:50 | 61.32078 | 18.82912 | 27789 ft | 398 kts | 197° |
| 2026-05-05 10:50 | 61.29317 | 18.82457 | 27789 ft | 398 kts | 197° |
| 2026-05-05 10:51 | 61.26595 | 18.82009 | 27790 ft | 398 kts | 197° |
| 2026-05-05 10:51 | 61.23832 | 18.81556 | 27790 ft | 398 kts | 197° |
| 2026-05-05 10:51 | 61.21097 | 18.81116 | 27538 ft | 391 kts | 196° |
| 2026-05-05 10:51 | 61.18418 | 18.80693 | 27203 ft | 380 kts | 197° |
| 2026-05-05 10:52 | 61.15799 | 18.80277 | 26771 ft | 373 kts | 197° |
| 2026-05-05 10:52 | 61.13233 | 18.79861 | 26294 ft | 367 kts | 197° |
| 2026-05-05 10:52 | 61.10703 | 18.79447 | 25815 ft | 363 kts | 197° |
| 2026-05-05 10:52 | 61.08198 | 18.79034 | 25346 ft | 359 kts | 197° |
| 2026-05-05 10:53 | 61.05720 | 18.78627 | 24897 ft | 356 kts | 198° |
| 2026-05-05 10:53 | 61.03235 | 18.78210 | 24439 ft | 362 kts | 198° |
| 2026-05-05 10:53 | 61.00746 | 18.77792 | 23973 ft | 365 kts | 197° |
| 2026-05-05 10:53 | 60.98229 | 18.77388 | 23496 ft | 361 kts | 197° |
| 2026-05-05 10:54 | 60.95742 | 18.76995 | 22958 ft | 356 kts | 197° |
| 2026-05-05 10:54 | 60.93293 | 18.76606 | 22478 ft | 350 kts | 198° |
| 2026-05-05 10:54 | 60.90882 | 18.76221 | 21947 ft | 345 kts | 197° |
| 2026-05-05 10:54 | 60.88512 | 18.75842 | 21560 ft | 340 kts | 197° |
| 2026-05-05 10:55 | 60.86163 | 18.75463 | 21125 ft | 336 kts | 198° |
| 2026-05-05 10:55 | 60.83891 | 18.74767 | 20723 ft | 326 kts | 205° |
| 2026-05-05 10:55 | 60.81714 | 18.73424 | 20309 ft | 331 kts | 209° |
| 2026-05-05 10:55 | 60.79541 | 18.71993 | 19851 ft | 332 kts | 208° |
| 2026-05-05 10:56 | 60.77347 | 18.70564 | 19387 ft | 329 kts | 208° |
| 2026-05-05 10:56 | 60.75184 | 18.69166 | 18937 ft | 324 kts | 208° |
| 2026-05-05 10:56 | 60.73044 | 18.67789 | 18500 ft | 320 kts | 209° |
| 2026-05-05 10:56 | 60.70929 | 18.66430 | 18058 ft | 317 kts | 209° |
| 2026-05-05 10:57 | 60.68839 | 18.65089 | 17565 ft | 313 kts | 208° |
| 2026-05-05 10:57 | 60.66767 | 18.63760 | 17114 ft | 311 kts | 208° |
| 2026-05-05 10:57 | 60.64701 | 18.62435 | 16689 ft | 310 kts | 207° |
| 2026-05-05 10:57 | 60.62662 | 18.61126 | 16243 ft | 315 kts | 206° |
| 2026-05-05 10:58 | 60.60535 | 18.59755 | 15815 ft | 326 kts | 205° |
| 2026-05-05 10:58 | 60.58351 | 18.58356 | 15369 ft | 330 kts | 205° |
| 2026-05-05 10:58 | 60.56173 | 18.56976 | 14914 ft | 326 kts | 204° |
| 2026-05-05 10:58 | 60.54014 | 18.55615 | 14476 ft | 323 kts | 204° |
| 2026-05-05 10:59 | 60.51877 | 18.54266 | 14048 ft | 321 kts | 203° |
| 2026-05-05 10:59 | 60.49741 | 18.52915 | 13624 ft | 322 kts | 202° |
| 2026-05-05 10:59 | 60.47622 | 18.51575 | 13141 ft | 324 kts | 202° |
| 2026-05-05 10:59 | 60.45450 | 18.50202 | 12688 ft | 330 kts | 202° |
| 2026-05-05 11:00 | 60.43249 | 18.48813 | 12238 ft | 332 kts | 201° |
| 2026-05-05 11:00 | 60.41051 | 18.47433 | 11796 ft | 329 kts | 201° |
| 2026-05-05 11:00 | 60.38879 | 18.46072 | 11373 ft | 325 kts | 201° |
| 2026-05-05 11:00 | 60.36733 | 18.44726 | 10943 ft | 322 kts | 201° |
| 2026-05-05 11:01 | 60.34607 | 18.43395 | 10611 ft | 316 kts | 201° |
| 2026-05-05 11:01 | 60.32551 | 18.42111 | 10488 ft | 304 kts | 201° |
| 2026-05-05 11:01 | 60.30587 | 18.40887 | 10359 ft | 294 kts | 201° |
| 2026-05-05 11:01 | 60.28663 | 18.39688 | 10224 ft | 285 kts | 201° |
| 2026-05-05 11:02 | 60.26751 | 18.38818 | 10090 ft | 281 kts | 191° |
| 2026-05-05 11:02 | 60.24813 | 18.38507 | 9992 ft | 279 kts | 187° |
| 2026-05-05 11:02 | 60.22892 | 18.38303 | 9873 ft | 273 kts | 187° |
| 2026-05-05 11:02 | 60.21018 | 18.38098 | 9676 ft | 268 kts | 187° |
| 2026-05-05 11:03 | 60.19161 | 18.37873 | 9389 ft | 266 kts | 187° |
| 2026-05-05 11:03 | 60.17321 | 18.37631 | 9121 ft | 264 kts | 188° |
| 2026-05-05 11:03 | 60.15493 | 18.37379 | 8857 ft | 262 kts | 188° |
| 2026-05-05 11:03 | 60.13702 | 18.37124 | 8591 ft | 260 kts | 188° |
| 2026-05-05 11:04 | 60.11904 | 18.36864 | 8339 ft | 258 kts | 188° |
| 2026-05-05 11:04 | 60.10117 | 18.36604 | 8075 ft | 257 kts | 188° |
| 2026-05-05 11:04 | 60.08341 | 18.36345 | 7831 ft | 255 kts | 188° |
| 2026-05-05 11:04 | 60.06572 | 18.36093 | 7576 ft | 254 kts | 188° |
| 2026-05-05 11:05 | 60.04814 | 18.35844 | 7310 ft | 252 kts | 187° |
| 2026-05-05 11:05 | 60.03066 | 18.35597 | 7060 ft | 252 kts | 188° |
| 2026-05-05 11:05 | 60.01324 | 18.35348 | 6817 ft | 250 kts | 187° |
| 2026-05-05 11:05 | 59.99590 | 18.35102 | 6570 ft | 249 kts | 187° |
| 2026-05-05 11:06 | 59.97889 | 18.34861 | 6333 ft | 248 kts | 188° |
| 2026-05-05 11:06 | 59.96162 | 18.34615 | 6092 ft | 251 kts | 187° |
| 2026-05-05 11:06 | 59.94413 | 18.34367 | 5975 ft | 253 kts | 187° |
| 2026-05-05 11:06 | 59.92676 | 18.34123 | 5848 ft | 247 kts | 187° |
| 2026-05-05 11:07 | 59.90989 | 18.33861 | 5726 ft | 239 kts | 192° |
| 2026-05-05 11:07 | 59.89526 | 18.32593 | 5554 ft | 227 kts | 226° |
| 2026-05-05 11:07 | 59.88540 | 18.30219 | 5373 ft | 221 kts | 240° |
| 2026-05-05 11:07 | 59.87774 | 18.27652 | 5279 ft | 214 kts | 243° |
| 2026-05-05 11:08 | 59.87053 | 18.25130 | 5097 ft | 211 kts | 243° |
| 2026-05-05 11:08 | 59.86319 | 18.22565 | 4884 ft | 216 kts | 243° |
| 2026-05-05 11:08 | 59.85565 | 18.19947 | 4655 ft | 219 kts | 242° |
| 2026-05-05 11:08 | 59.84805 | 18.17331 | 4418 ft | 218 kts | 242° |
| 2026-05-05 11:09 | 59.84041 | 18.14723 | 4167 ft | 218 kts | 242° |
| 2026-05-05 11:09 | 59.83279 | 18.12126 | 3940 ft | 217 kts | 242° |
| 2026-05-05 11:09 | 59.82515 | 18.09537 | 3697 ft | 217 kts | 242° |
| 2026-05-05 11:09 | 59.81753 | 18.06959 | 3463 ft | 216 kts | 242° |
| 2026-05-05 11:10 | 59.81000 | 18.04423 | 3248 ft | 210 kts | 242° |
| 2026-05-05 11:10 | 59.80186 | 18.02120 | 2985 ft | 207 kts | 225° |
| 2026-05-05 11:10 | 59.78856 | 18.01097 | 2773 ft | 207 kts | 193° |
| 2026-05-05 11:10 | 59.77483 | 18.00576 | 2577 ft | 195 kts | 200° |
| 2026-05-05 11:11 | 59.76200 | 17.99987 | 2479 ft | 184 kts | 196° |
| 2026-05-05 11:11 | 59.74944 | 17.99527 | 2228 ft | 183 kts | 196° |
| 2026-05-05 11:11 | 59.73695 | 17.99078 | 1974 ft | 182 kts | 196° |
| 2026-05-05 11:11 | 59.72469 | 17.98637 | 1742 ft | 174 kts | 197° |
| 2026-05-05 11:12 | 59.71306 | 17.98215 | 1483 ft | 167 kts | 197° |
| 2026-05-05 11:12 | 59.70195 | 17.97811 | 1287 ft | 158 kts | 196° |
| 2026-05-05 11:12 | 59.69134 | 17.97425 | 1049 ft | 159 kts | 195° |
| 2026-05-05 11:12 | 59.68042 | 17.97031 | 826 ft | 160 kts | 195° |
| 2026-05-05 11:13 | 59.66935 | 17.96626 | 561 ft | 162 kts | 195° |
| 2026-05-05 11:13 | 59.65830 | 17.96229 | 312 ft | 158 kts | 195° |
| 2026-05-05 11:13 | 59.64785 | 17.95860 | 137 ft | 149 kts | 195° |
| 2026-05-05 11:13 | 59.63863 | 17.95522 | 111 ft | 110 kts | 191° |
| 2026-05-05 11:14 | 59.63297 | 17.95318 | 122 ft | 69 kts | 191° |
| 2026-05-05 11:14 | 59.62985 | 17.95117 | 135 ft | 37 kts | 214° |
| 2026-05-05 11:14 | 59.62846 | 17.94845 | 136 ft | 20 kts | 269° |
| 2026-05-05 11:14 | 59.62935 | 17.94776 | 135 ft | 16 kts | 9° |
| 2026-05-05 11:15 | 59.63071 | 17.94825 | 127 ft | 26 kts | 10° |
| 2026-05-05 11:15 | 59.63290 | 17.94905 | 123 ft | 38 kts | 9° |
| 2026-05-05 11:15 | 59.63573 | 17.95006 | 114 ft | 43 kts | 10° |
| 2026-05-05 11:15 | 59.63867 | 17.95109 | 109 ft | 42 kts | 11° |
| 2026-05-05 11:16 | 59.64148 | 17.95215 | 106 ft | 40 kts | 10° |
| 2026-05-05 11:16 | 59.64342 | 17.95152 | 104 ft | 27 kts | 320° |
| 2026-05-05 11:16 | 59.64402 | 17.94831 | 102 ft | 25 kts | 262° |
| 2026-05-05 11:16 | 59.64327 | 17.94531 | 102 ft | 24 kts | 238° |
| 2026-05-05 11:17 | 59.64231 | 17.94232 | 103 ft | 29 kts | 238° |
| 2026-05-05 11:17 | 59.64121 | 17.93887 | 108 ft | 31 kts | 238° |
| 2026-05-05 11:17 | 59.64005 | 17.93519 | 111 ft | 30 kts | 244° |
| 2026-05-05 11:17 | 59.64029 | 17.93144 | 110 ft | 28 kts | 296° |
| 2026-05-05 11:18 | 59.64111 | 17.92872 | 111 ft | 14 kts | 333° |
| 2026-05-05 11:18 | 59.64148 | 17.92877 | 111 ft | 1 kts | 19° |
| 2026-05-05 11:18 | 59.64149 | 17.92878 | 111 ft | 0 kts | 19° |
| 2026-05-05 11:19 | 59.64177 | 17.92902 | 111 ft | 9 kts | 25° |
| 2026-05-05 11:19 | 59.64248 | 17.92969 | 111 ft | 12 kts | 25° |
| 2026-05-05 11:19 | 59.64292 | 17.93011 | 111 ft | 1 kts | 25° |
| 2026-05-05 11:20 | 59.64299 | 17.93017 | 111 ft | 0 kts | 25° |
| 2026-05-05 12:05 | 59.64298 | 17.93016 | 111 ft | 0 kts | 26° |